Time;durP1;ratioP1;P1;durP2;ratioP2;P2;SDS_P1;SDS_P2;PMS_P1;PMS_P2;Temp;Humidity;BMP_temperature;BMP_pressure;BME280_temperature;BME280_humidity;BME280_pressure;Samples;Min_cycle;Max_cycle;Signal;HPM_P1;HPM_P2
2022/07/02 00:00:04;;;;;;;;;;;18.10;91.00;18.20;99977.00;;;;343204;28;88518;-86
2022/07/02 00:00:16;;;;;;;;;;;18.10;91.10;18.20;99982.00;;;;343059;28;87572;-86
2022/07/02 00:00:28;;;;;;;;;;;18.10;91.10;18.10;99982.00;;;;343162;28;90900;-85
2022/07/02 00:00:39;;;;;;;;;;;18.10;91.20;18.10;99985.00;;;;342980;28;87001;-86
2022/07/02 00:00:51;;;;;;;;;;;18.10;91.10;18.10;99979.00;;;;345946;28;87642;-86
2022/07/02 00:01:03;;;;;;;;;;;18.10;91.10;18.10;99982.00;;;;344153;28;85210;-85
2022/07/02 00:01:17;;;;;;;;;;;18.00;91.20;18.20;99977.00;;;;344512;28;90846;-86
2022/07/02 00:01:29;;;;;;;;;;;18.10;91.10;18.20;99983.00;;;;343158;28;86697;-85
2022/07/02 00:01:40;;;;;;;;;;;18.10;91.10;18.10;99990.00;;;;342988;28;88529;-86
2022/07/02 00:01:52;;;;;;;;;;;18.10;91.20;18.10;99979.00;;;;342955;28;88742;-86
2022/07/02 00:02:06;;;;;;;;;;;18.00;91.20;18.10;99976.00;;;;344051;28;89625;-86
2022/07/02 00:02:19;;;;;;;;;;;18.10;91.20;18.20;99992.00;;;;342847;28;87827;-86
2022/07/02 00:02:32;;;;;;;;;;;18.10;91.10;18.30;99983.00;;;;344625;28;88507;-85
2022/07/02 00:02:44;;;;;;;;;;;18.00;91.10;18.30;99986.00;;;;343060;28;86034;-86
2022/07/02 00:02:56;;;;;;;;;;;18.10;91.20;18.20;99986.00;;;;343069;28;89571;-86
2022/07/02 00:03:09;;;;;;;;;;;18.00;91.20;18.10;99989.00;;;;345665;28;88893;-86
2022/07/02 00:03:24;;;;;;;;;;;18.00;91.30;18.10;99993.00;;;;345675;28;89441;-86
2022/07/02 00:03:37;;;;;;;;;;;18.00;91.20;18.10;99984.00;;;;346931;28;87040;-86
2022/07/02 00:03:53;;;;;;;;;;;18.00;91.20;18.10;99978.00;;;;346006;28;88912;-85
2022/07/02 00:04:05;;;;;;;;;;;18.10;91.30;18.10;99983.00;;;;342927;28;88050;-86
2022/07/02 00:04:19;;;;;;;;;;;18.00;91.40;18.00;99984.00;;;;343171;28;89853;-86
2022/07/02 00:04:32;;;;;;;;;;;18.00;91.40;18.00;99981.00;;;;344529;28;87107;-85
2022/07/02 00:04:46;;;;;;;;;;;18.00;91.30;18.10;99985.00;;;;343497;28;88518;-86
2022/07/02 00:05:00;;;;;;;;;;;18.00;91.30;18.10;99987.00;;;;341455;28;87198;-86
2022/07/02 00:05:12;;;;;;;;;;;18.00;91.30;18.20;99979.00;;;;343200;28;89959;-86
2022/07/02 00:05:24;;;;;;;;;;;18.00;91.30;18.20;99983.00;;;;344374;28;87771;-86
2022/07/02 00:05:38;;;;;;;;;;;18.00;91.30;18.20;99977.00;;;;344435;28;90062;-86
2022/07/02 00:05:58;;;;;;;;;;;18.00;91.30;18.10;99987.00;;;;344301;28;86896;-86
2022/07/02 00:06:10;;;;;;;;;;;18.00;91.40;18.20;99987.00;;;;344254;28;90924;-86
2022/07/02 00:06:25;;;;;;;;;;;18.00;91.20;18.20;99985.00;;;;345651;28;87956;-86
2022/07/02 00:06:37;;;;;;;;;;;18.00;91.20;18.20;99984.00;;;;344605;28;87652;-86
2022/07/02 00:06:49;;;;;;;;;;;18.00;91.20;18.20;99984.00;;;;345780;28;86380;-86
2022/07/02 00:07:00;;;;;;;;;;;18.00;91.20;18.20;99988.00;;;;343064;28;89260;-85
2022/07/02 00:07:14;;;;;;;;;;;18.00;91.30;18.10;99981.00;;;;345737;28;86974;-86
2022/07/02 00:07:27;;;;;;;;;;;18.00;91.20;18.10;99985.00;;;;343310;28;87509;-86
2022/07/02 00:07:38;;;;;;;;;;;18.00;91.30;18.10;99988.00;;;;345141;28;86709;-86
2022/07/02 00:07:50;;;;;;;;;;;18.00;91.40;18.20;99980.00;;;;345639;28;88348;-86
2022/07/02 00:08:02;;;;;;;;;;;18.00;91.30;18.30;99989.00;;;;344187;28;88405;-86
2022/07/02 00:08:13;;;;;;;;;;;18.00;91.30;18.20;99989.00;;;;344443;28;90916;-86
2022/07/02 00:08:26;;;;;;;;;;;18.00;91.40;18.10;99981.00;;;;344384;28;87054;-86
2022/07/02 00:08:37;;;;;;;;;;;18.00;91.50;18.20;99992.00;;;;343160;28;86408;-86
2022/07/02 00:08:49;;;;;;;;;;;18.00;91.50;18.20;99990.00;;;;345709;28;85978;-86
2022/07/02 00:09:01;;;;;;;;;;;18.00;91.50;18.10;99987.00;;;;345858;28;89689;-86
2022/07/02 00:09:13;;;;;;;;;;;18.00;91.50;18.10;99988.00;;;;344287;28;87255;-86
2022/07/02 00:09:27;;;;;;;;;;;18.00;91.50;18.10;99980.00;;;;341897;28;88537;-86
2022/07/02 00:09:38;;;;;;;;;;;18.00;91.40;18.00;99981.00;;;;344217;28;86014;-87
2022/07/02 00:09:52;;;;;;;;;;;18.00;91.40;18.00;99981.00;;;;343102;28;89491;-86
2022/07/02 00:10:05;;;;;;;;;;;17.90;91.30;18.00;99985.00;;;;345611;28;86252;-86
2022/07/02 00:10:18;;;;;;;;;;;17.90;91.30;18.10;99983.00;;;;345863;28;90775;-85
2022/07/02 00:10:29;;;;;;;;;;;17.90;91.30;18.00;99987.00;;;;345706;28;87971;-86
2022/07/02 00:10:41;;;;;;;;;;;17.90;91.40;18.00;99991.00;;;;344190;28;87383;-86
2022/07/02 00:10:54;;;;;;;;;;;17.90;91.40;18.00;99985.00;;;;345679;28;87192;-86
2022/07/02 00:11:05;;;;;;;;;;;17.90;91.30;18.00;99987.00;;;;346965;28;90556;-87
2022/07/02 00:11:17;;;;;;;;;;;17.90;91.40;18.00;99981.00;;;;342954;28;86892;-86
2022/07/02 00:11:29;;;;;;;;;;;17.90;91.50;18.10;99990.00;;;;341866;28;90871;-86
2022/07/02 00:11:41;;;;;;;;;;;17.90;91.40;18.10;99988.00;;;;345523;28;87917;-86
2022/07/02 00:11:56;;;;;;;;;;;17.90;91.30;18.10;99987.00;;;;343358;28;88314;-86
2022/07/02 00:12:09;;;;;;;;;;;17.90;91.50;18.10;99991.00;;;;343074;28;85896;-86
2022/07/02 00:12:25;;;;;;;;;;;17.90;91.60;18.10;99983.00;;;;343186;28;89529;-86
2022/07/02 00:12:37;;;;;;;;;;;17.90;91.70;18.20;99982.00;;;;342970;28;86897;-86
2022/07/02 00:12:49;;;;;;;;;;;17.90;91.60;18.10;99982.00;;;;343212;28;89543;-86
2022/07/02 00:13:01;;;;;;;;;;;17.90;91.60;18.20;99988.00;;;;344301;28;87188;-86
2022/07/02 00:13:13;;;;;;;;;;;17.90;91.50;18.20;99991.00;;;;344565;28;89589;-86
2022/07/02 00:13:25;;;;;;;;;;;17.90;91.40;18.20;99995.00;;;;342961;28;86904;-86
2022/07/02 00:13:37;;;;;;;;;;;17.90;91.40;18.20;99987.00;;;;343290;28;91604;-86
2022/07/02 00:13:49;;;;;;;;;;;17.90;91.50;18.10;99989.00;;;;341827;28;87834;-86
2022/07/02 00:14:01;;;;;;;;;;;17.90;91.50;18.10;99988.00;;;;341782;28;89880;-86
2022/07/02 00:14:14;;;;;;;;;;;17.90;91.40;18.20;99990.00;;;;344247;28;87192;-86
2022/07/02 00:14:26;;;;;;;;;;;17.90;91.30;18.30;99981.00;;;;343275;28;88026;-86
2022/07/02 00:14:37;;;;;;;;;;;17.90;91.50;18.20;99993.00;;;;344164;28;88363;-86
2022/07/02 00:14:54;;;;;;;;;;;17.90;91.40;18.30;99991.00;;;;344596;28;90557;-86
2022/07/02 00:15:06;;;;;;;;;;;18.00;91.40;18.30;99992.00;;;;344270;28;88216;-86
2022/07/02 00:15:18;;;;;;;;;;;18.00;91.30;18.10;99987.00;;;;344531;28;90893;-86
2022/07/02 00:15:30;;;;;;;;;;;18.00;91.30;18.10;99984.00;;;;344340;28;87663;-86
2022/07/02 00:15:41;;;;;;;;;;;18.00;91.30;18.20;99993.00;;;;345989;28;88023;-86
2022/07/02 00:15:53;;;;;;;;;;;17.90;91.30;18.10;99993.00;;;;347068;28;87980;-87
2022/07/02 00:16:10;;;;;;;;;;;18.00;91.50;18.00;99987.00;;;;344620;28;86587;-86
2022/07/02 00:16:24;;;;;;;;;;;17.90;91.30;18.10;99984.00;;;;344295;28;88373;-86
2022/07/02 00:16:36;;;;;;;;;;;17.90;91.30;18.20;99984.00;;;;344702;28;89943;-86
2022/07/02 00:16:48;;;;;;;;;;;17.90;91.30;18.20;99983.00;;;;344688;28;86353;-85
2022/07/02 00:17:00;;;;;;;;;;;17.90;91.40;18.30;99996.00;;;;344395;28;90685;-85
2022/07/02 00:17:12;;;;;;;;;;;17.90;91.30;18.30;99990.00;;;;343874;28;88586;-85
2022/07/02 00:17:24;;;;;;;;;;;18.00;91.20;18.20;99991.00;;;;344611;28;89604;-86
2022/07/02 00:17:37;;;;;;;;;;;18.00;91.20;18.20;99994.00;;;;346875;28;88030;-86
2022/07/02 00:17:48;;;;;;;;;;;18.00;91.30;18.20;99988.00;;;;344567;28;90926;-86
2022/07/02 00:18:00;;;;;;;;;;;17.90;91.50;18.20;99995.00;;;;344337;28;86129;-86
2022/07/02 00:18:12;;;;;;;;;;;18.00;91.30;18.20;99989.00;;;;344525;28;89956;-86
2022/07/02 00:18:24;;;;;;;;;;;18.00;91.20;18.20;99991.00;;;;345641;28;87498;-86
2022/07/02 00:18:36;;;;;;;;;;;18.00;91.20;18.10;99990.00;;;;344556;28;89203;-86
2022/07/02 00:18:48;;;;;;;;;;;18.00;91.30;18.10;99991.00;;;;345679;28;86879;-86
2022/07/02 00:18:59;;;;;;;;;;;18.00;91.40;18.10;99989.00;;;;344449;28;87471;-86
2022/07/02 00:19:14;;;;;;;;;;;18.00;91.30;18.10;99990.00;;;;345525;28;87550;-86
2022/07/02 00:19:26;;;;;;;;;;;18.00;91.30;18.20;99987.00;;;;344565;28;87128;-86
2022/07/02 00:19:38;;;;;;;;;;;18.00;91.30;18.20;99988.00;;;;345751;28;87683;-86
2022/07/02 00:19:50;;;;;;;;;;;18.00;91.30;18.20;99987.00;;;;346816;28;87420;-86
2022/07/02 00:20:02;;;;;;;;;;;18.00;91.40;18.20;99989.00;;;;346815;28;88195;-86
2022/07/02 00:20:14;;;;;;;;;;;18.00;91.30;18.20;99989.00;;;;347183;28;87762;-86
2022/07/02 00:20:25;;;;;;;;;;;18.00;91.30;18.20;99992.00;;;;344306;28;86952;-86
2022/07/02 00:20:38;;;;;;;;;;;18.00;91.30;18.20;99988.00;;;;341743;28;91598;-85
2022/07/02 00:20:50;;;;;;;;;;;18.00;91.40;18.20;99995.00;;;;342986;28;86884;-86
2022/07/02 00:21:02;;;;;;;;;;;18.00;91.40;18.20;99982.00;;;;344619;28;89523;-86
2022/07/02 00:21:15;;;;;;;;;;;18.00;91.70;18.10;99989.00;;;;342842;28;87593;-86
2022/07/02 00:21:27;;;;;;;;;;;18.00;91.50;18.10;99989.00;;;;344586;28;90922;-86
2022/07/02 00:21:39;;;;;;;;;;;18.00;91.40;18.20;99988.00;;;;341505;28;87716;-86
2022/07/02 00:21:52;;;;;;;;;;;18.00;91.40;18.20;99995.00;;;;341925;28;87112;-86
2022/07/02 00:22:04;;;;;;;;;;;18.00;91.50;18.30;99989.00;;;;342922;28;88485;-86
2022/07/02 00:22:16;;;;;;;;;;;18.00;91.40;18.20;99991.00;;;;344558;28;87317;-86
2022/07/02 00:22:28;;;;;;;;;;;18.00;91.40;18.20;99985.00;;;;342852;28;86849;-86
2022/07/02 00:22:40;;;;;;;;;;;18.00;91.40;18.30;99994.00;;;;344034;28;88431;-86
2022/07/02 00:22:52;;;;;;;;;;;18.00;91.40;18.30;99997.00;;;;341401;28;87774;-86
2022/07/02 00:23:04;;;;;;;;;;;18.00;91.30;18.30;99993.00;;;;343763;28;87380;-86
2022/07/02 00:23:15;;;;;;;;;;;18.00;91.40;18.20;99998.00;;;;347012;28;87901;-86
2022/07/02 00:23:27;;;;;;;;;;;18.00;91.30;18.20;99991.00;;;;344613;28;88562;-86
2022/07/02 00:23:39;;;;;;;;;;;18.00;91.30;18.20;99990.00;;;;344133;28;87482;-86
2022/07/02 00:23:51;;;;;;;;;;;18.00;91.30;18.20;99984.00;;;;345972;28;88180;-86
2022/07/02 00:24:03;;;;;;;;;;;18.00;91.30;18.20;99981.00;;;;343061;28;85267;-86
2022/07/02 00:24:14;;;;;;;;;;;18.00;91.30;18.20;99995.00;;;;344500;28;90786;-86
2022/07/02 00:24:26;;;;;;;;;;;18.00;91.30;18.20;99989.00;;;;344272;28;88590;-86
2022/07/02 00:24:40;;;;;;;;;;;18.00;91.30;18.20;99997.00;;;;345870;28;88973;-86
2022/07/02 00:24:53;;;;;;;;;;;18.00;91.30;18.10;99996.00;;;;342899;28;87762;-86
2022/07/02 00:25:05;;;;;;;;;;;18.00;91.30;18.10;99995.00;;;;345887;28;88910;-86
2022/07/02 00:25:16;;;;;;;;;;;18.00;91.40;18.10;99997.00;;;;344275;28;86888;-86
2022/07/02 00:25:28;;;;;;;;;;;18.00;91.30;18.10;99999.00;;;;344621;28;88354;-86
2022/07/02 00:26:04;;;;;;;;;;;18.00;91.20;18.10;99992.00;;;;343655;28;87007;-86
2022/07/02 00:26:22;;;;;;;;;;;18.00;91.20;18.10;99995.00;;;;344462;28;89328;-86
2022/07/02 00:26:37;;;;;;;;;;;18.00;91.60;18.10;99999.00;;;;345707;28;87890;-85
2022/07/02 00:26:53;;;;;;;;;;;18.00;91.40;18.20;99992.00;;;;345976;28;88746;-86
2022/07/02 00:27:05;;;;;;;;;;;18.00;91.50;18.20;99999.00;;;;344263;28;87836;-86
2022/07/02 00:27:18;;;;;;;;;;;18.00;91.30;18.20;99993.00;;;;345776;28;92366;-86
2022/07/02 00:27:30;;;;;;;;;;;18.00;91.40;18.10;99993.00;;;;345773;28;86829;-86
2022/07/02 00:27:42;;;;;;;;;;;18.00;91.40;18.10;99988.00;;;;345910;28;89483;-86
2022/07/02 00:27:53;;;;;;;;;;;18.00;91.40;18.10;99996.00;;;;342939;28;87183;-86
2022/07/02 00:28:05;;;;;;;;;;;18.00;91.50;18.20;99998.00;;;;345975;28;90562;-86
2022/07/02 00:28:17;;;;;;;;;;;18.00;91.50;18.20;99989.00;;;;343793;28;87006;-86
2022/07/02 00:28:29;;;;;;;;;;;18.00;91.40;18.20;99990.00;;;;343015;28;90837;-86
2022/07/02 00:28:41;;;;;;;;;;;18.00;91.50;18.20;99993.00;;;;347556;27;88044;-86
2022/07/02 00:29:17;;;;;;;;;;;18.00;91.40;18.20;99993.00;;;;345929;28;90089;-86
2022/07/02 00:29:51;;;;;;;;;;;18.00;91.40;18.10;99991.00;;;;340196;28;86847;-86
2022/07/02 00:30:04;;;;;;;;;;;18.00;91.40;18.10;99994.00;;;;341786;28;89699;-86
2022/07/02 00:30:15;;;;;;;;;;;18.00;91.70;18.10;99995.00;;;;342821;28;88252;-86
2022/07/02 00:30:27;;;;;;;;;;;18.00;91.70;18.10;99993.00;;;;344498;28;92199;-86
2022/07/02 00:30:39;;;;;;;;;;;18.00;91.70;18.10;99987.00;;;;342960;28;88198;-85
2022/07/02 00:30:51;;;;;;;;;;;18.00;91.90;18.00;99992.00;;;;344535;28;90167;-86
2022/07/02 00:31:03;;;;;;;;;;;18.00;92.10;18.00;99987.00;;;;344348;28;86731;-86
2022/07/02 00:31:15;;;;;;;;;;;18.00;91.90;18.00;99983.00;;;;343080;28;89123;-86
2022/07/02 00:31:27;;;;;;;;;;;17.90;92.00;18.10;99991.00;;;;342879;28;87582;-86
2022/07/02 00:31:38;;;;;;;;;;;18.00;91.80;18.10;99989.00;;;;345558;28;87693;-86
2022/07/02 00:31:50;;;;;;;;;;;18.00;91.70;18.10;99986.00;;;;346982;28;87066;-86
2022/07/02 00:32:03;;;;;;;;;;;17.90;91.60;18.10;99993.00;;;;346587;28;88030;-86
2022/07/02 00:32:21;;;;;;;;;;;18.00;91.60;18.10;99997.00;;;;345725;28;87037;-86
2022/07/02 00:32:34;;;;;;;;;;;17.90;91.70;18.00;99990.00;;;;345042;28;88178;-86
2022/07/02 00:32:46;;;;;;;;;;;18.00;91.80;18.00;99986.00;;;;346830;28;86840;-86
2022/07/02 00:32:57;;;;;;;;;;;18.00;91.90;18.10;99997.00;;;;345750;28;89630;-85
2022/07/02 00:33:09;;;;;;;;;;;17.90;91.80;18.00;99992.00;;;;344270;28;87073;-86
2022/07/02 00:33:23;;;;;;;;;;;17.90;91.80;18.00;99992.00;;;;343095;28;91121;-86
2022/07/02 00:33:37;;;;;;;;;;;17.90;91.80;18.00;99983.00;;;;344407;28;85179;-86
2022/07/02 00:33:49;;;;;;;;;;;17.90;91.80;18.00;99990.00;;;;347085;28;90254;-86
2022/07/02 00:34:01;;;;;;;;;;;17.90;91.90;17.90;99986.00;;;;344164;28;87298;-86
2022/07/02 00:34:13;;;;;;;;;;;17.90;92.00;17.90;99986.00;;;;345933;28;87398;-86
2022/07/02 00:34:25;;;;;;;;;;;17.90;92.10;17.90;99987.00;;;;344238;28;87490;-86
2022/07/02 00:34:37;;;;;;;;;;;17.90;92.10;18.00;99987.00;;;;346272;28;89528;-85
2022/07/02 00:34:49;;;;;;;;;;;17.90;92.00;18.10;99989.00;;;;344543;28;87039;-86
2022/07/02 00:35:11;;;;;;;;;;;17.90;91.90;18.10;99991.00;;;;345595;28;88020;-86
2022/07/02 00:35:23;;;;;;;;;;;17.90;91.90;18.00;99977.00;;;;344289;28;88447;-86
2022/07/02 00:35:35;;;;;;;;;;;17.90;91.90;18.00;99989.00;;;;347143;28;90665;-86
2022/07/02 00:35:46;;;;;;;;;;;17.90;92.10;18.00;99992.00;;;;345720;28;87125;-87
2022/07/02 00:35:58;;;;;;;;;;;17.90;92.10;18.00;99986.00;;;;345940;28;87418;-86
2022/07/02 00:36:21;;;;;;;;;;;17.90;92.10;18.00;99988.00;;;;344181;28;86737;-86
2022/07/02 00:36:33;;;;;;;;;;;17.90;92.10;18.10;99983.00;;;;343224;28;89594;-86
2022/07/02 00:36:45;;;;;;;;;;;17.90;92.00;18.10;99986.00;;;;341529;28;87393;-86
2022/07/02 00:36:57;;;;;;;;;;;17.90;92.00;18.10;99988.00;;;;344458;28;89189;-86
2022/07/02 00:37:09;;;;;;;;;;;17.90;91.90;18.00;99987.00;;;;342860;28;88365;-86
2022/07/02 00:37:21;;;;;;;;;;;17.90;92.00;18.00;99989.00;;;;343185;28;87329;-86
2022/07/02 00:37:32;;;;;;;;;;;17.90;92.30;18.00;99995.00;;;;342559;28;86335;-86
2022/07/02 00:37:44;;;;;;;;;;;17.90;92.30;17.90;99988.00;;;;342132;28;90913;-86
2022/07/02 00:37:56;;;;;;;;;;;17.90;92.30;18.00;99986.00;;;;345645;28;88523;-86
2022/07/02 00:38:08;;;;;;;;;;;17.90;92.30;18.00;99991.00;;;;343238;28;89903;-86
2022/07/02 00:38:19;;;;;;;;;;;17.90;92.20;18.00;99982.00;;;;342745;28;88719;-86
2022/07/02 00:38:31;;;;;;;;;;;17.90;92.10;18.00;99996.00;;;;344450;28;91514;-85
2022/07/02 00:38:43;;;;;;;;;;;17.90;92.00;18.00;99992.00;;;;345681;28;87807;-85
2022/07/02 00:38:54;;;;;;;;;;;17.90;92.00;18.00;99990.00;;;;344118;28;91216;-86
2022/07/02 00:39:06;;;;;;;;;;;17.90;92.20;18.00;99988.00;;;;344193;28;87069;-85
2022/07/02 00:39:18;;;;;;;;;;;17.90;92.00;18.00;99986.00;;;;343116;28;89780;-86
2022/07/02 00:39:30;;;;;;;;;;;17.90;92.10;18.00;99988.00;;;;344345;28;86840;-86
2022/07/02 00:39:41;;;;;;;;;;;17.90;91.90;18.00;99983.00;;;;344464;28;89993;-86
2022/07/02 00:39:56;;;;;;;;;;;17.90;91.90;18.00;99979.00;;;;342987;28;87622;-86
2022/07/02 00:40:08;;;;;;;;;;;17.90;91.90;18.00;99988.00;;;;343206;28;88871;-86
2022/07/02 00:40:20;;;;;;;;;;;17.90;92.00;17.90;99989.00;;;;342694;28;87625;-86
2022/07/02 00:40:32;;;;;;;;;;;17.90;92.10;17.90;99988.00;;;;342118;28;90881;-86
2022/07/02 00:40:43;;;;;;;;;;;17.90;92.10;17.90;99989.00;;;;341742;28;88591;-85
2022/07/02 00:40:55;;;;;;;;;;;17.90;92.20;18.00;99984.00;;;;343148;28;90506;-86
2022/07/02 00:41:07;;;;;;;;;;;17.90;92.00;18.00;99992.00;;;;342827;28;87035;-86
2022/07/02 00:41:19;;;;;;;;;;;17.90;91.90;18.00;99980.00;;;;343076;28;88840;-86
2022/07/02 00:41:30;;;;;;;;;;;17.80;91.90;18.00;99988.00;;;;342921;28;87360;-86
2022/07/02 00:41:43;;;;;;;;;;;17.80;91.80;18.00;99981.00;;;;344477;28;91219;-86
2022/07/02 00:41:55;;;;;;;;;;;17.90;91.80;18.00;99979.00;;;;342981;28;87358;-85
2022/07/02 00:42:08;;;;;;;;;;;17.80;91.80;18.00;99988.00;;;;341748;28;89785;-86
2022/07/02 00:42:20;;;;;;;;;;;17.80;91.90;18.00;99987.00;;;;342692;28;86955;-86
2022/07/02 00:42:31;;;;;;;;;;;17.80;91.90;18.00;99976.00;;;;344506;28;88978;-86
2022/07/02 00:42:43;;;;;;;;;;;17.80;91.90;18.00;99983.00;;;;342985;28;86784;-86
2022/07/02 00:42:55;;;;;;;;;;;17.80;92.00;18.00;99991.00;;;;345904;28;90596;-86
2022/07/02 00:43:07;;;;;;;;;;;17.80;92.10;18.00;99992.00;;;;345757;28;86207;-86
2022/07/02 00:43:18;;;;;;;;;;;17.90;92.20;18.00;99984.00;;;;345781;28;90745;-86
2022/07/02 00:43:31;;;;;;;;;;;17.80;92.20;18.00;99991.00;;;;343054;28;88203;-86
2022/07/02 00:43:43;;;;;;;;;;;17.80;92.30;17.90;99990.00;;;;345609;28;90869;-86
2022/07/02 00:43:55;;;;;;;;;;;17.80;92.30;18.00;99984.00;;;;345696;28;88001;-86
2022/07/02 00:44:07;;;;;;;;;;;17.80;92.10;18.00;99987.00;;;;344376;28;87456;-86
2022/07/02 00:44:22;;;;;;;;;;;17.80;92.00;18.00;99984.00;;;;341439;28;88633;-86
2022/07/02 00:44:33;;;;;;;;;;;17.80;92.10;18.10;99982.00;;;;343670;28;88274;-86
2022/07/02 00:44:45;;;;;;;;;;;17.80;92.10;18.10;99991.00;;;;342893;28;87867;-86
2022/07/02 00:44:57;;;;;;;;;;;17.90;92.20;18.10;99981.00;;;;344301;28;91994;-86
2022/07/02 00:45:09;;;;;;;;;;;17.90;92.20;18.00;99988.00;;;;344253;28;88407;-86
2022/07/02 00:45:21;;;;;;;;;;;17.80;92.10;18.00;99988.00;;;;344121;28;91023;-86
2022/07/02 00:45:35;;;;;;;;;;;17.80;92.20;18.10;99987.00;;;;345799;28;85869;-86
2022/07/02 00:45:48;;;;;;;;;;;17.80;92.20;18.10;99989.00;;;;341778;28;89941;-86
2022/07/02 00:45:59;;;;;;;;;;;17.80;92.10;18.20;99983.00;;;;341599;28;87688;-86
2022/07/02 00:46:11;;;;;;;;;;;17.90;92.10;18.20;99988.00;;;;344436;28;89699;-86
2022/07/02 00:46:23;;;;;;;;;;;17.90;92.00;18.10;99986.00;;;;342821;28;88840;-85
2022/07/02 00:46:35;;;;;;;;;;;17.90;92.00;18.20;99985.00;;;;342528;28;90705;-86
2022/07/02 00:46:47;;;;;;;;;;;17.90;92.00;18.20;99992.00;;;;344158;28;87964;-86
2022/07/02 00:47:07;;;;;;;;;;;17.90;92.10;18.10;99991.00;;;;345733;28;89593;-86
2022/07/02 00:47:21;;;;;;;;;;;17.90;92.00;18.10;99991.00;;;;344381;28;86904;-86
2022/07/02 00:47:33;;;;;;;;;;;17.90;92.00;18.10;99980.00;;;;343472;28;89370;-86
2022/07/02 00:47:44;;;;;;;;;;;17.90;92.00;18.20;99980.00;;;;344336;28;86555;-86
2022/07/02 00:47:56;;;;;;;;;;;17.90;91.80;18.10;99993.00;;;;347191;28;91731;-85
2022/07/02 00:48:08;;;;;;;;;;;17.90;91.80;18.00;99982.00;;;;343022;28;86095;-86
2022/07/02 00:48:20;;;;;;;;;;;17.90;91.80;18.00;99987.00;;;;343090;28;89889;-86
2022/07/02 00:48:31;;;;;;;;;;;17.90;91.90;18.00;99992.00;;;;342670;28;88050;-86
2022/07/02 00:48:43;;;;;;;;;;;17.90;91.90;18.00;99995.00;;;;344322;28;89168;-86
2022/07/02 00:48:55;;;;;;;;;;;17.90;92.00;18.00;99988.00;;;;344317;28;86815;-86
2022/07/02 00:49:06;;;;;;;;;;;17.90;92.00;18.00;99992.00;;;;344438;28;90707;-86
2022/07/02 00:49:18;;;;;;;;;;;17.90;92.00;18.00;99987.00;;;;345648;28;88045;-86
2022/07/02 00:49:34;;;;;;;;;;;17.80;92.00;18.00;99993.00;;;;342716;28;91490;-86
2022/07/02 00:49:46;;;;;;;;;;;17.80;92.00;17.90;99985.00;;;;344794;28;86119;-86
2022/07/02 00:49:57;;;;;;;;;;;17.90;92.10;18.00;99994.00;;;;345755;28;91409;-86
2022/07/02 00:50:09;;;;;;;;;;;17.90;92.10;17.90;99982.00;;;;344360;28;86327;-86
2022/07/02 00:50:22;;;;;;;;;;;17.80;92.20;17.90;99987.00;;;;343119;28;90576;-86
2022/07/02 00:50:34;;;;;;;;;;;17.80;92.20;17.90;99985.00;;;;343522;28;86768;-86
2022/07/02 00:50:45;;;;;;;;;;;17.80;92.20;18.00;99986.00;;;;343091;28;90736;-85
2022/07/02 00:50:57;;;;;;;;;;;17.80;92.00;18.00;99995.00;;;;342667;28;87593;-86
2022/07/02 00:51:10;;;;;;;;;;;17.80;92.00;17.90;99982.00;;;;343270;28;88176;-86
2022/07/02 00:51:21;;;;;;;;;;;17.80;92.10;17.90;99988.00;;;;345657;28;88060;-86
2022/07/02 00:51:34;;;;;;;;;;;17.80;92.10;17.90;99996.00;;;;345847;28;88476;-86
2022/07/02 00:51:46;;;;;;;;;;;17.80;92.10;17.90;99993.00;;;;344280;28;87259;-86
2022/07/02 00:51:57;;;;;;;;;;;17.80;92.20;17.90;99989.00;;;;343153;28;91614;-86
2022/07/02 00:52:09;;;;;;;;;;;17.80;92.20;17.90;99991.00;;;;344203;28;88081;-86
2022/07/02 00:52:21;;;;;;;;;;;17.80;92.30;17.90;99987.00;;;;344413;28;91276;-86
2022/07/02 00:52:33;;;;;;;;;;;17.80;92.20;18.00;99982.00;;;;345155;28;87305;-86
2022/07/02 00:52:44;;;;;;;;;;;17.80;92.20;17.90;99991.00;;;;343493;28;90442;-85
2022/07/02 00:52:56;;;;;;;;;;;17.80;92.30;17.90;99988.00;;;;344209;28;87311;-86
2022/07/02 00:53:08;;;;;;;;;;;17.80;92.40;18.10;99984.00;;;;343105;28;90581;-85
2022/07/02 00:53:20;;;;;;;;;;;17.80;92.40;18.10;99986.00;;;;342908;28;86946;-86
2022/07/02 00:53:31;;;;;;;;;;;17.80;92.40;18.20;99991.00;;;;341650;28;91213;-86
2022/07/02 00:53:43;;;;;;;;;;;17.80;92.40;18.20;99991.00;;;;342854;28;88386;-86
2022/07/02 00:53:55;;;;;;;;;;;17.80;92.40;18.20;99996.00;;;;342873;28;87816;-86
2022/07/02 00:54:07;;;;;;;;;;;17.80;92.20;18.20;99990.00;;;;344350;28;86127;-86
2022/07/02 00:54:18;;;;;;;;;;;17.90;92.10;18.10;99989.00;;;;344632;28;87687;-86
2022/07/02 00:54:30;;;;;;;;;;;17.80;92.00;18.10;99986.00;;;;344344;28;88072;-86
2022/07/02 00:54:42;;;;;;;;;;;17.90;92.00;18.10;99982.00;;;;343239;28;87653;-86
2022/07/02 00:54:54;;;;;;;;;;;17.90;92.00;18.10;99985.00;;;;344237;28;86855;-86
2022/07/02 00:55:06;;;;;;;;;;;17.90;92.00;18.20;99989.00;;;;347410;28;88452;-86
2022/07/02 00:55:18;;;;;;;;;;;17.90;91.90;18.20;99993.00;;;;346931;28;86745;-86
2022/07/02 00:55:30;;;;;;;;;;;17.90;91.90;18.10;99988.00;;;;346954;28;89417;-86
2022/07/02 00:55:41;;;;;;;;;;;17.90;91.90;18.00;99985.00;;;;345426;28;86800;-86
2022/07/02 00:55:56;;;;;;;;;;;17.90;91.90;18.00;99992.00;;;;347241;28;90619;-86
2022/07/02 00:56:08;;;;;;;;;;;17.90;91.90;18.00;99997.00;;;;342676;28;87573;-86
2022/07/02 00:56:20;;;;;;;;;;;17.90;92.00;18.00;99989.00;;;;345886;28;87384;-86
2022/07/02 00:56:32;;;;;;;;;;;17.90;91.90;18.10;99995.00;;;;344457;28;86814;-86
2022/07/02 00:56:45;;;;;;;;;;;17.90;91.90;18.20;99989.00;;;;344395;28;90153;-86
2022/07/02 00:56:57;;;;;;;;;;;17.90;91.90;18.20;99992.00;;;;342807;28;87596;-86
2022/07/02 00:57:11;;;;;;;;;;;17.90;92.00;18.20;99985.00;;;;343138;28;88446;-86
2022/07/02 00:57:23;;;;;;;;;;;17.90;92.00;18.20;99989.00;;;;341590;28;86897;-86
2022/07/02 00:57:34;;;;;;;;;;;17.90;92.10;18.00;99988.00;;;;343083;28;89481;-86
2022/07/02 00:57:46;;;;;;;;;;;17.90;92.10;17.90;99992.00;;;;343025;28;86776;-86
2022/07/02 00:57:58;;;;;;;;;;;17.90;92.10;17.90;99990.00;;;;344491;28;90451;-86
2022/07/02 00:58:10;;;;;;;;;;;17.80;92.30;18.00;99990.00;;;;345648;28;87440;-85
2022/07/02 00:58:21;;;;;;;;;;;17.80;92.20;18.00;99982.00;;;;345907;28;86588;-85
2022/07/02 00:58:33;;;;;;;;;;;17.80;92.10;18.00;99988.00;;;;347254;27;88090;-86
2022/07/02 00:58:45;;;;;;;;;;;17.80;92.00;18.00;99984.00;;;;345318;28;87877;-86
2022/07/02 00:58:57;;;;;;;;;;;17.80;92.00;17.90;99990.00;;;;344316;28;86986;-86
2022/07/02 00:59:09;;;;;;;;;;;17.80;92.10;17.90;99987.00;;;;344488;28;90995;-86
2022/07/02 00:59:21;;;;;;;;;;;17.80;92.30;17.90;100000.00;;;;344325;28;86787;-86
2022/07/02 00:59:33;;;;;;;;;;;17.80;92.50;17.90;99990.00;;;;344134;28;88965;-86
2022/07/02 00:59:44;;;;;;;;;;;17.80;92.40;18.10;99990.00;;;;345614;28;88483;-86
2022/07/02 00:59:56;;;;;;;;;;;17.80;92.30;18.10;99993.00;;;;348648;27;89669;-85
2022/07/02 01:00:08;;;;;;;;;;;17.80;92.20;18.10;99999.00;;;;344389;28;86074;-85
2022/07/02 01:00:20;;;;;;;;;;;17.80;92.20;18.00;99996.00;;;;342936;28;90026;-85
2022/07/02 01:00:32;;;;;;;;;;;17.80;92.30;18.00;99989.00;;;;342963;28;86899;-86
2022/07/02 01:00:43;;;;;;;;;;;17.80;92.30;18.10;99993.00;;;;344613;28;87429;-86
2022/07/02 01:00:55;;;;;;;;;;;17.80;92.30;18.10;99995.00;;;;342856;28;87012;-85
2022/07/02 01:01:07;;;;;;;;;;;17.80;92.20;18.00;99987.00;;;;344570;28;91688;-86
2022/07/02 01:01:19;;;;;;;;;;;17.80;92.20;18.10;99988.00;;;;344181;28;88543;-86
2022/07/02 01:01:30;;;;;;;;;;;17.80;92.20;18.00;99994.00;;;;347616;27;90553;-86
2022/07/02 01:01:42;;;;;;;;;;;17.80;92.20;17.90;99991.00;;;;344287;28;87091;-86
2022/07/02 01:01:54;;;;;;;;;;;17.80;92.30;17.90;99990.00;;;;344531;28;88096;-85
2022/07/02 01:02:09;;;;;;;;;;;17.80;92.40;18.00;99992.00;;;;344047;28;86133;-86
2022/07/02 01:02:21;;;;;;;;;;;17.80;92.30;17.90;99987.00;;;;344482;28;87609;-85